sensor_id;sensor_type;location;lat;lon;timestamp;temperature;humidity
7844;DHT22;3967;48.702;9.326;2023-03-14T00:01:12;10.60;99.90
7844;DHT22;3967;48.702;9.326;2023-03-14T00:03:39;10.70;99.90
7844;DHT22;3967;48.702;9.326;2023-03-14T00:06:07;10.70;99.90
7844;DHT22;3967;48.702;9.326;2023-03-14T00:08:34;10.60;99.90
7844;DHT22;3967;48.702;9.326;2023-03-14T00:11:15;10.50;99.90
7844;DHT22;3967;48.702;9.326;2023-03-14T00:13:43;10.40;99.90
7844;DHT22;3967;48.702;9.326;2023-03-14T00:16:11;10.30;99.90
7844;DHT22;3967;48.702;9.326;2023-03-14T00:18:39;10.40;99.90
7844;DHT22;3967;48.702;9.326;2023-03-14T00:21:07;10.30;99.90
7844;DHT22;3967;48.702;9.326;2023-03-14T00:23:36;10.40;99.90
7844;DHT22;3967;48.702;9.326;2023-03-14T00:26:09;10.40;99.90
7844;DHT22;3967;48.702;9.326;2023-03-14T00:28:37;10.50;99.90
7844;DHT22;3967;48.702;9.326;2023-03-14T00:31:05;10.50;99.90
7844;DHT22;3967;48.702;9.326;2023-03-14T00:33:33;10.70;99.90
7844;DHT22;3967;48.702;9.326;2023-03-14T00:36:02;10.70;99.90
7844;DHT22;3967;48.702;9.326;2023-03-14T00:38:30;10.70;99.90
7844;DHT22;3967;48.702;9.326;2023-03-14T00:40:57;10.70;99.90
7844;DHT22;3967;48.702;9.326;2023-03-14T00:43:24;10.70;99.90
7844;DHT22;3967;48.702;9.326;2023-03-14T00:45:52;10.70;99.90
7844;DHT22;3967;48.702;9.326;2023-03-14T00:48:19;10.90;99.90
7844;DHT22;3967;48.702;9.326;2023-03-14T00:50:46;11.00;99.90
7844;DHT22;3967;48.702;9.326;2023-03-14T00:53:13;11.00;99.90
7844;DHT22;3967;48.702;9.326;2023-03-14T00:55:41;11.00;99.90
7844;DHT22;3967;48.702;9.326;2023-03-14T00:58:10;10.90;99.90
7844;DHT22;3967;48.702;9.326;2023-03-14T01:00:37;10.90;99.90
7844;DHT22;3967;48.702;9.326;2023-03-14T01:03:04;10.90;99.90
7844;DHT22;3967;48.702;9.326;2023-03-14T01:05:31;10.90;99.90
7844;DHT22;3967;48.702;9.326;2023-03-14T01:07:57;10.90;99.90
7844;DHT22;3967;48.702;9.326;2023-03-14T01:10:24;10.80;99.90
7844;DHT22;3967;48.702;9.326;2023-03-14T01:12:51;10.70;99.90
7844;DHT22;3967;48.702;9.326;2023-03-14T01:15:18;10.80;99.90
7844;DHT22;3967;48.702;9.326;2023-03-14T01:17:45;10.80;99.90
7844;DHT22;3967;48.702;9.326;2023-03-14T01:20:13;10.80;99.90
7844;DHT22;3967;48.702;9.326;2023-03-14T01:22:41;11.00;99.90
7844;DHT22;3967;48.702;9.326;2023-03-14T01:25:15;11.10;99.90
7844;DHT22;3967;48.702;9.326;2023-03-14T01:27:42;11.10;99.90
7844;DHT22;3967;48.702;9.326;2023-03-14T01:30:10;11.20;99.90
7844;DHT22;3967;48.702;9.326;2023-03-14T01:32:37;11.20;99.90
7844;DHT22;3967;48.702;9.326;2023-03-14T01:35:05;11.20;99.90
7844;DHT22;3967;48.702;9.326;2023-03-14T01:37:32;11.30;99.90
7844;DHT22;3967;48.702;9.326;2023-03-14T01:39:58;11.40;99.90
7844;DHT22;3967;48.702;9.326;2023-03-14T01:42:25;11.40;99.90
7844;DHT22;3967;48.702;9.326;2023-03-14T01:44:57;11.40;99.90
7844;DHT22;3967;48.702;9.326;2023-03-14T01:47:24;11.30;99.90
7844;DHT22;3967;48.702;9.326;2023-03-14T01:50:02;11.20;99.90
7844;DHT22;3967;48.702;9.326;2023-03-14T01:52:37;11.10;99.90
7844;DHT22;3967;48.702;9.326;2023-03-14T01:55:13;10.90;99.90
7844;DHT22;3967;48.702;9.326;2023-03-14T01:57:47;10.90;99.90
7844;DHT22;3967;48.702;9.326;2023-03-14T02:00:19;10.90;99.90
7844;DHT22;3967;48.702;9.326;2023-03-14T02:02:49;10.80;99.90
7844;DHT22;3967;48.702;9.326;2023-03-14T02:05:22;10.60;99.90
7844;DHT22;3967;48.702;9.326;2023-03-14T02:07:52;10.70;99.90
7844;DHT22;3967;48.702;9.326;2023-03-14T02:10:22;10.70;99.90
7844;DHT22;3967;48.702;9.326;2023-03-14T02:12:51;10.60;99.90
7844;DHT22;3967;48.702;9.326;2023-03-14T02:15:19;10.50;99.90
7844;DHT22;3967;48.702;9.326;2023-03-14T02:17:47;10.60;99.90
7844;DHT22;3967;48.702;9.326;2023-03-14T02:22:42;10.60;99.90
7844;DHT22;3967;48.702;9.326;2023-03-14T02:25:15;10.50;99.90
7844;DHT22;3967;48.702;9.326;2023-03-14T02:27:43;10.50;99.90
7844;DHT22;3967;48.702;9.326;2023-03-14T02:30:18;10.40;99.90
7844;DHT22;3967;48.702;9.326;2023-03-14T02:32:52;10.40;99.90
7844;DHT22;3967;48.702;9.326;2023-03-14T02:35:32;10.40;99.90
7844;DHT22;3967;48.702;9.326;2023-03-14T02:38:50;10.40;99.90
7844;DHT22;3967;48.702;9.326;2023-03-14T02:40:50;10.40;99.90
7844;DHT22;3967;48.702;9.326;2023-03-14T02:43:17;10.40;99.90
7844;DHT22;3967;48.702;9.326;2023-03-14T02:45:46;10.40;99.90
7844;DHT22;3967;48.702;9.326;2023-03-14T02:48:19;10.40;99.90
7844;DHT22;3967;48.702;9.326;2023-03-14T02:50:48;10.40;99.90
7844;DHT22;3967;48.702;9.326;2023-03-14T02:53:21;10.30;99.90
7844;DHT22;3967;48.702;9.326;2023-03-14T02:55:50;10.30;99.90
7844;DHT22;3967;48.702;9.326;2023-03-14T02:58:18;10.40;99.90
7844;DHT22;3967;48.702;9.326;2023-03-14T03:00:45;10.30;99.90
7844;DHT22;3967;48.702;9.326;2023-03-14T03:03:12;10.30;99.90
7844;DHT22;3967;48.702;9.326;2023-03-14T03:05:39;10.30;99.90
7844;DHT22;3967;48.702;9.326;2023-03-14T03:08:06;10.30;99.90
7844;DHT22;3967;48.702;9.326;2023-03-14T03:10:34;10.30;99.90
7844;DHT22;3967;48.702;9.326;2023-03-14T03:13:01;10.30;99.90
7844;DHT22;3967;48.702;9.326;2023-03-14T03:15:28;10.20;99.90
7844;DHT22;3967;48.702;9.326;2023-03-14T03:17:54;10.30;99.90
7844;DHT22;3967;48.702;9.326;2023-03-14T03:20:21;10.30;99.90
7844;DHT22;3967;48.702;9.326;2023-03-14T03:22:48;10.20;99.90
7844;DHT22;3967;48.702;9.326;2023-03-14T03:25:16;10.30;99.90
7844;DHT22;3967;48.702;9.326;2023-03-14T03:27:43;10.20;99.90
7844;DHT22;3967;48.702;9.326;2023-03-14T03:30:10;10.20;99.90
7844;DHT22;3967;48.702;9.326;2023-03-14T03:32:37;10.20;99.90
7844;DHT22;3967;48.702;9.326;2023-03-14T03:35:04;10.10;99.90
7844;DHT22;3967;48.702;9.326;2023-03-14T03:37:32;10.20;99.90
7844;DHT22;3967;48.702;9.326;2023-03-14T03:39:59;10.10;99.90
7844;DHT22;3967;48.702;9.326;2023-03-14T03:42:27;10.10;99.90
7844;DHT22;3967;48.702;9.326;2023-03-14T03:44:54;10.10;99.90
7844;DHT22;3967;48.702;9.326;2023-03-14T03:47:21;10.10;99.90
7844;DHT22;3967;48.702;9.326;2023-03-14T03:49:47;10.20;99.90
7844;DHT22;3967;48.702;9.326;2023-03-14T03:52:14;10.10;99.90
7844;DHT22;3967;48.702;9.326;2023-03-14T03:54:41;10.10;99.90
7844;DHT22;3967;48.702;9.326;2023-03-14T03:57:07;10.20;99.90
7844;DHT22;3967;48.702;9.326;2023-03-14T03:59:34;10.10;99.90
7844;DHT22;3967;48.702;9.326;2023-03-14T04:02:01;10.10;99.90
7844;DHT22;3967;48.702;9.326;2023-03-14T04:04:28;10.00;99.90
7844;DHT22;3967;48.702;9.326;2023-03-14T04:06:55;10.00;99.90
7844;DHT22;3967;48.702;9.326;2023-03-14T04:09:22;10.00;99.90
7844;DHT22;3967;48.702;9.326;2023-03-14T04:11:48;10.00;99.90
7844;DHT22;3967;48.702;9.326;2023-03-14T04:14:15;10.00;99.90
7844;DHT22;3967;48.702;9.326;2023-03-14T04:16:42;10.00;99.90
7844;DHT22;3967;48.702;9.326;2023-03-14T04:19:09;10.10;99.90
7844;DHT22;3967;48.702;9.326;2023-03-14T04:21:35;10.00;99.90
7844;DHT22;3967;48.702;9.326;2023-03-14T04:24:03;9.90;99.90
7844;DHT22;3967;48.702;9.326;2023-03-14T04:26:29;9.90;99.90
7844;DHT22;3967;48.702;9.326;2023-03-14T04:28:58;9.90;99.90
7844;DHT22;3967;48.702;9.326;2023-03-14T04:31:24;9.90;99.90
7844;DHT22;3967;48.702;9.326;2023-03-14T04:33:51;9.90;99.90
7844;DHT22;3967;48.702;9.326;2023-03-14T04:36:18;9.80;99.90
7844;DHT22;3967;48.702;9.326;2023-03-14T04:38:45;9.80;99.90
7844;DHT22;3967;48.702;9.326;2023-03-14T04:41:12;9.80;99.90
7844;DHT22;3967;48.702;9.326;2023-03-14T04:43:38;9.90;99.90
7844;DHT22;3967;48.702;9.326;2023-03-14T04:46:05;9.80;99.90
7844;DHT22;3967;48.702;9.326;2023-03-14T04:48:32;9.70;99.90
7844;DHT22;3967;48.702;9.326;2023-03-14T04:50:58;10.00;99.90
7844;DHT22;3967;48.702;9.326;2023-03-14T04:53:25;10.00;99.90
7844;DHT22;3967;48.702;9.326;2023-03-14T04:55:54;10.00;99.90
7844;DHT22;3967;48.702;9.326;2023-03-14T04:58:22;10.00;99.90
7844;DHT22;3967;48.702;9.326;2023-03-14T05:00:50;9.80;99.90
7844;DHT22;3967;48.702;9.326;2023-03-14T05:03:17;9.70;99.90
7844;DHT22;3967;48.702;9.326;2023-03-14T05:05:44;9.60;99.90
7844;DHT22;3967;48.702;9.326;2023-03-14T05:08:12;9.70;99.90
7844;DHT22;3967;48.702;9.326;2023-03-14T05:10:38;9.70;99.90
7844;DHT22;3967;48.702;9.326;2023-03-14T05:13:05;9.70;99.90
7844;DHT22;3967;48.702;9.326;2023-03-14T05:15:32;9.70;99.90
7844;DHT22;3967;48.702;9.326;2023-03-14T05:17:59;9.60;99.90
7844;DHT22;3967;48.702;9.326;2023-03-14T05:20:25;9.70;99.90
7844;DHT22;3967;48.702;9.326;2023-03-14T05:22:52;9.70;99.90
7844;DHT22;3967;48.702;9.326;2023-03-14T05:25:19;9.70;99.90
7844;DHT22;3967;48.702;9.326;2023-03-14T05:27:45;9.80;99.90
7844;DHT22;3967;48.702;9.326;2023-03-14T05:30:12;9.70;99.90
7844;DHT22;3967;48.702;9.326;2023-03-14T05:32:39;9.60;99.90
7844;DHT22;3967;48.702;9.326;2023-03-14T05:35:06;9.70;99.90
7844;DHT22;3967;48.702;9.326;2023-03-14T05:37:33;9.70;99.90
7844;DHT22;3967;48.702;9.326;2023-03-14T05:40:01;9.70;99.90
7844;DHT22;3967;48.702;9.326;2023-03-14T05:42:27;9.80;99.90
7844;DHT22;3967;48.702;9.326;2023-03-14T05:44:54;9.80;99.90
7844;DHT22;3967;48.702;9.326;2023-03-14T05:47:21;9.80;99.90
7844;DHT22;3967;48.702;9.326;2023-03-14T05:49:47;9.80;99.90
7844;DHT22;3967;48.702;9.326;2023-03-14T05:52:15;9.80;99.90
7844;DHT22;3967;48.702;9.326;2023-03-14T05:54:41;9.90;99.90
7844;DHT22;3967;48.702;9.326;2023-03-14T05:57:08;10.00;99.90
7844;DHT22;3967;48.702;9.326;2023-03-14T05:59:35;10.10;99.90
7844;DHT22;3967;48.702;9.326;2023-03-14T06:02:01;10.00;99.90
7844;DHT22;3967;48.702;9.326;2023-03-14T06:04:28;10.10;99.90
7844;DHT22;3967;48.702;9.326;2023-03-14T06:06:55;10.10;99.90
7844;DHT22;3967;48.702;9.326;2023-03-14T06:09:22;10.10;99.90
7844;DHT22;3967;48.702;9.326;2023-03-14T06:11:49;10.00;99.90
7844;DHT22;3967;48.702;9.326;2023-03-14T06:14:17;10.00;99.90
7844;DHT22;3967;48.702;9.326;2023-03-14T06:16:44;10.10;99.90
7844;DHT22;3967;48.702;9.326;2023-03-14T06:19:11;10.00;99.90
7844;DHT22;3967;48.702;9.326;2023-03-14T06:21:38;10.10;99.90
7844;DHT22;3967;48.702;9.326;2023-03-14T06:24:05;10.00;99.90
7844;DHT22;3967;48.702;9.326;2023-03-14T06:26:31;9.90;99.90
7844;DHT22;3967;48.702;9.326;2023-03-14T06:28:58;9.90;99.90
7844;DHT22;3967;48.702;9.326;2023-03-14T06:31:30;10.00;99.90
7844;DHT22;3967;48.702;9.326;2023-03-14T06:33:57;10.00;99.70
7844;DHT22;3967;48.702;9.326;2023-03-14T06:36:24;10.00;99.90
7844;DHT22;3967;48.702;9.326;2023-03-14T06:38:51;10.10;99.90
7844;DHT22;3967;48.702;9.326;2023-03-14T06:41:18;10.10;99.40
7844;DHT22;3967;48.702;9.326;2023-03-14T06:43:45;10.10;99.60
7844;DHT22;3967;48.702;9.326;2023-03-14T06:46:11;10.20;99.50
7844;DHT22;3967;48.702;9.326;2023-03-14T06:48:38;10.30;99.30
7844;DHT22;3967;48.702;9.326;2023-03-14T06:51:05;10.20;99.40
7844;DHT22;3967;48.702;9.326;2023-03-14T06:53:32;10.10;99.20
7844;DHT22;3967;48.702;9.326;2023-03-14T06:55:59;10.20;99.00
7844;DHT22;3967;48.702;9.326;2023-03-14T06:58:26;10.30;99.00
7844;DHT22;3967;48.702;9.326;2023-03-14T07:00:53;10.20;99.10
7844;DHT22;3967;48.702;9.326;2023-03-14T07:03:21;10.10;98.90
7844;DHT22;3967;48.702;9.326;2023-03-14T07:05:48;10.20;99.60
7844;DHT22;3967;48.702;9.326;2023-03-14T07:08:15;10.30;99.40
7844;DHT22;3967;48.702;9.326;2023-03-14T07:10:42;10.30;99.50
7844;DHT22;3967;48.702;9.326;2023-03-14T07:13:08;10.40;99.40
7844;DHT22;3967;48.702;9.326;2023-03-14T07:15:35;10.50;98.80
7844;DHT22;3967;48.702;9.326;2023-03-14T07:18:02;10.60;99.10
7844;DHT22;3967;48.702;9.326;2023-03-14T07:20:29;10.60;98.80
7844;DHT22;3967;48.702;9.326;2023-03-14T07:22:58;10.90;98.80
7844;DHT22;3967;48.702;9.326;2023-03-14T07:25:32;11.10;98.70
7844;DHT22;3967;48.702;9.326;2023-03-14T07:27:58;11.10;98.20
7844;DHT22;3967;48.702;9.326;2023-03-14T07:30:25;11.30;96.90
7844;DHT22;3967;48.702;9.326;2023-03-14T07:32:52;11.30;96.20
7844;DHT22;3967;48.702;9.326;2023-03-14T07:35:19;11.40;96.40
7844;DHT22;3967;48.702;9.326;2023-03-14T07:37:45;11.40;96.20
7844;DHT22;3967;48.702;9.326;2023-03-14T07:40:12;11.60;95.60
7844;DHT22;3967;48.702;9.326;2023-03-14T07:42:42;11.80;95.70
7844;DHT22;3967;48.702;9.326;2023-03-14T07:45:10;11.80;95.30
7844;DHT22;3967;48.702;9.326;2023-03-14T07:47:38;11.60;95.10
7844;DHT22;3967;48.702;9.326;2023-03-14T07:50:05;11.60;95.30
7844;DHT22;3967;48.702;9.326;2023-03-14T07:52:32;11.90;95.20
7844;DHT22;3967;48.702;9.326;2023-03-14T07:54:59;12.00;95.00
7844;DHT22;3967;48.702;9.326;2023-03-14T07:57:25;11.90;94.90
7844;DHT22;3967;48.702;9.326;2023-03-14T07:59:52;11.70;94.60
7844;DHT22;3967;48.702;9.326;2023-03-14T08:02:19;11.60;94.80
7844;DHT22;3967;48.702;9.326;2023-03-14T08:04:49;11.60;95.20
7844;DHT22;3967;48.702;9.326;2023-03-14T08:07:16;12.00;95.00
7844;DHT22;3967;48.702;9.326;2023-03-14T08:09:42;12.30;94.60
7844;DHT22;3967;48.702;9.326;2023-03-14T08:12:09;12.50;93.40
7844;DHT22;3967;48.702;9.326;2023-03-14T08:14:36;12.50;93.40
7844;DHT22;3967;48.702;9.326;2023-03-14T08:17:03;12.60;93.80
7844;DHT22;3967;48.702;9.326;2023-03-14T08:19:29;12.60;92.90
7844;DHT22;3967;48.702;9.326;2023-03-14T08:21:56;12.40;92.80
7844;DHT22;3967;48.702;9.326;2023-03-14T08:24:23;12.30;92.80
7844;DHT22;3967;48.702;9.326;2023-03-14T08:26:50;12.30;92.90
7844;DHT22;3967;48.702;9.326;2023-03-14T08:29:16;12.50;93.00
7844;DHT22;3967;48.702;9.326;2023-03-14T08:31:43;12.60;93.10
7844;DHT22;3967;48.702;9.326;2023-03-14T08:34:11;12.70;92.50
7844;DHT22;3967;48.702;9.326;2023-03-14T08:36:37;12.90;91.90
7844;DHT22;3967;48.702;9.326;2023-03-14T08:39:04;12.60;91.40
7844;DHT22;3967;48.702;9.326;2023-03-14T08:41:34;12.70;91.90
7844;DHT22;3967;48.702;9.326;2023-03-14T08:44:07;12.70;92.20
7844;DHT22;3967;48.702;9.326;2023-03-14T08:46:35;12.80;91.90
7844;DHT22;3967;48.702;9.326;2023-03-14T08:49:02;12.80;91.50
7844;DHT22;3967;48.702;9.326;2023-03-14T08:51:29;13.00;91.60
7844;DHT22;3967;48.702;9.326;2023-03-14T08:53:56;13.10;91.30
7844;DHT22;3967;48.702;9.326;2023-03-14T08:56:22;13.50;91.00
7844;DHT22;3967;48.702;9.326;2023-03-14T08:58:51;13.60;90.70
7844;DHT22;3967;48.702;9.326;2023-03-14T09:01:18;13.80;90.30
7844;DHT22;3967;48.702;9.326;2023-03-14T09:03:46;13.90;89.60
7844;DHT22;3967;48.702;9.326;2023-03-14T09:06:14;13.60;89.50
7844;DHT22;3967;48.702;9.326;2023-03-14T09:08:45;13.50;88.00
7844;DHT22;3967;48.702;9.326;2023-03-14T09:11:12;13.70;88.80
7844;DHT22;3967;48.702;9.326;2023-03-14T09:13:39;13.70;88.60
7844;DHT22;3967;48.702;9.326;2023-03-14T09:16:06;13.70;87.20
7844;DHT22;3967;48.702;9.326;2023-03-14T09:18:34;13.50;87.60
7844;DHT22;3967;48.702;9.326;2023-03-14T09:21:00;13.20;88.60
7844;DHT22;3967;48.702;9.326;2023-03-14T09:23:27;13.00;88.80
7844;DHT22;3967;48.702;9.326;2023-03-14T09:25:55;13.10;90.10
7844;DHT22;3967;48.702;9.326;2023-03-14T09:28:22;13.00;90.30
7844;DHT22;3967;48.702;9.326;2023-03-14T09:30:49;13.30;90.30
7844;DHT22;3967;48.702;9.326;2023-03-14T09:33:16;13.10;90.40
7844;DHT22;3967;48.702;9.326;2023-03-14T09:35:43;13.30;90.20
7844;DHT22;3967;48.702;9.326;2023-03-14T09:38:10;13.50;89.30
7844;DHT22;3967;48.702;9.326;2023-03-14T09:40:37;13.80;89.50
7844;DHT22;3967;48.702;9.326;2023-03-14T09:43:05;13.80;89.40
7844;DHT22;3967;48.702;9.326;2023-03-14T09:45:36;13.90;88.00
7844;DHT22;3967;48.702;9.326;2023-03-14T09:48:04;14.10;87.90
7844;DHT22;3967;48.702;9.326;2023-03-14T09:50:44;13.90;86.50
7844;DHT22;3967;48.702;9.326;2023-03-14T09:53:16;13.60;86.70
7844;DHT22;3967;48.702;9.326;2023-03-14T09:55:47;13.60;87.40
7844;DHT22;3967;48.702;9.326;2023-03-14T09:58:17;13.60;88.70
7844;DHT22;3967;48.702;9.326;2023-03-14T10:00:45;13.60;89.20
7844;DHT22;3967;48.702;9.326;2023-03-14T10:05:40;12.90;91.40
7844;DHT22;3967;48.702;9.326;2023-03-14T10:08:11;13.00;91.70
7844;DHT22;3967;48.702;9.326;2023-03-14T10:10:38;12.70;91.60
7844;DHT22;3967;48.702;9.326;2023-03-14T10:13:16;12.70;92.10
7844;DHT22;3967;48.702;9.326;2023-03-14T10:16:09;12.60;92.30
7844;DHT22;3967;48.702;9.326;2023-03-14T10:18:34;12.60;92.70
7844;DHT22;3967;48.702;9.326;2023-03-14T10:21:25;12.60;92.50
7844;DHT22;3967;48.702;9.326;2023-03-14T10:23:53;12.60;92.50
7844;DHT22;3967;48.702;9.326;2023-03-14T10:26:29;12.80;92.40
7844;DHT22;3967;48.702;9.326;2023-03-14T10:29:17;12.90;92.30
7844;DHT22;3967;48.702;9.326;2023-03-14T10:31:54;13.10;91.80
7844;DHT22;3967;48.702;9.326;2023-03-14T10:34:27;13.30;91.70
7844;DHT22;3967;48.702;9.326;2023-03-14T10:36:57;13.50;90.70
7844;DHT22;3967;48.702;9.326;2023-03-14T10:39:28;13.70;90.70
7844;DHT22;3967;48.702;9.326;2023-03-14T10:42:03;13.70;90.60
7844;DHT22;3967;48.702;9.326;2023-03-14T10:44:31;13.70;90.20
7844;DHT22;3967;48.702;9.326;2023-03-14T10:47:00;13.70;90.30
7844;DHT22;3967;48.702;9.326;2023-03-14T10:49:33;13.70;90.30
7844;DHT22;3967;48.702;9.326;2023-03-14T10:52:15;13.70;88.50
7844;DHT22;3967;48.702;9.326;2023-03-14T10:55:34;13.70;88.50
7844;DHT22;3967;48.702;9.326;2023-03-14T10:57:42;13.70;87.70
7844;DHT22;3967;48.702;9.326;2023-03-14T11:00:15;13.40;86.90
7844;DHT22;3967;48.702;9.326;2023-03-14T11:05:39;13.00;87.50
7844;DHT22;3967;48.702;9.326;2023-03-14T11:08:11;13.20;88.20
7844;DHT22;3967;48.702;9.326;2023-03-14T11:10:45;13.20;87.70
7844;DHT22;3967;48.702;9.326;2023-03-14T11:13:25;13.00;88.90
7844;DHT22;3967;48.702;9.326;2023-03-14T11:29:54;12.80;90.70
7844;DHT22;3967;48.702;9.326;2023-03-14T11:35:20;12.60;92.80
7844;DHT22;3967;48.702;9.326;2023-03-14T11:41:14;12.40;94.20
7844;DHT22;3967;48.702;9.326;2023-03-14T11:43:47;12.60;95.00
7844;DHT22;3967;48.702;9.326;2023-03-14T11:46:20;12.50;94.10
7844;DHT22;3967;48.702;9.326;2023-03-14T11:48:59;12.60;94.60
7844;DHT22;3967;48.702;9.326;2023-03-14T11:51:35;12.60;94.10
7844;DHT22;3967;48.702;9.326;2023-03-14T11:54:29;12.60;95.00
7844;DHT22;3967;48.702;9.326;2023-03-14T11:57:11;12.60;95.80
7844;DHT22;3967;48.702;9.326;2023-03-14T12:10:48;12.30;94.70
7844;DHT22;3967;48.702;9.326;2023-03-14T12:13:16;12.40;94.90
7844;DHT22;3967;48.702;9.326;2023-03-14T12:15:55;12.50;95.30
7844;DHT22;3967;48.702;9.326;2023-03-14T12:18:36;12.40;95.50
7844;DHT22;3967;48.702;9.326;2023-03-14T12:21:10;12.50;95.30
7844;DHT22;3967;48.702;9.326;2023-03-14T12:23:44;12.20;95.60
7844;DHT22;3967;48.702;9.326;2023-03-14T12:26:22;12.00;96.80
7844;DHT22;3967;48.702;9.326;2023-03-14T12:42:05;12.00;96.40
7844;DHT22;3967;48.702;9.326;2023-03-14T12:50:13;11.40;90.50
7844;DHT22;3967;48.702;9.326;2023-03-14T12:55:24;11.50;88.80
7844;DHT22;3967;48.702;9.326;2023-03-14T12:58:50;11.40;89.60
7844;DHT22;3967;48.702;9.326;2023-03-14T13:01:00;11.70;90.40
7844;DHT22;3967;48.702;9.326;2023-03-14T13:03:48;11.90;90.10
7844;DHT22;3967;48.702;9.326;2023-03-14T13:12:10;11.40;78.90
7844;DHT22;3967;48.702;9.326;2023-03-14T13:14:41;11.40;78.40
7844;DHT22;3967;48.702;9.326;2023-03-14T13:17:13;11.30;78.30
7844;DHT22;3967;48.702;9.326;2023-03-14T13:20:12;11.20;76.80
7844;DHT22;3967;48.702;9.326;2023-03-14T13:22:46;11.20;77.20
7844;DHT22;3967;48.702;9.326;2023-03-14T13:25:13;11.30;77.00
7844;DHT22;3967;48.702;9.326;2023-03-14T13:27:40;11.30;76.00
7844;DHT22;3967;48.702;9.326;2023-03-14T13:30:23;11.30;75.00
7844;DHT22;3967;48.702;9.326;2023-03-14T13:32:51;11.60;75.50
7844;DHT22;3967;48.702;9.326;2023-03-14T13:35:29;11.50;72.30
7844;DHT22;3967;48.702;9.326;2023-03-14T13:38:04;11.60;72.80
7844;DHT22;3967;48.702;9.326;2023-03-14T13:40:38;11.20;70.30
7844;DHT22;3967;48.702;9.326;2023-03-14T13:43:25;10.90;70.50
7844;DHT22;3967;48.702;9.326;2023-03-14T13:46:03;10.90;70.70
7844;DHT22;3967;48.702;9.326;2023-03-14T13:48:32;11.00;70.30
7844;DHT22;3967;48.702;9.326;2023-03-14T13:51:07;11.00;70.00
7844;DHT22;3967;48.702;9.326;2023-03-14T13:53:44;11.20;69.80
7844;DHT22;3967;48.702;9.326;2023-03-14T13:56:12;10.90;69.60
7844;DHT22;3967;48.702;9.326;2023-03-14T13:58:40;10.90;70.00
7844;DHT22;3967;48.702;9.326;2023-03-14T14:01:16;10.90;68.30
7844;DHT22;3967;48.702;9.326;2023-03-14T14:03:47;10.80;69.80
7844;DHT22;3967;48.702;9.326;2023-03-14T14:06:35;10.90;69.40
7844;DHT22;3967;48.702;9.326;2023-03-14T14:09:15;10.70;67.30
7844;DHT22;3967;48.702;9.326;2023-03-14T14:14:42;10.70;66.80
7844;DHT22;3967;48.702;9.326;2023-03-14T14:17:17;10.60;65.70
7844;DHT22;3967;48.702;9.326;2023-03-14T14:19:45;10.60;64.50
7844;DHT22;3967;48.702;9.326;2023-03-14T14:22:13;10.50;64.90
7844;DHT22;3967;48.702;9.326;2023-03-14T14:24:40;10.40;64.20
7844;DHT22;3967;48.702;9.326;2023-03-14T14:27:19;10.20;63.30
7844;DHT22;3967;48.702;9.326;2023-03-14T14:30:04;10.20;62.00
7844;DHT22;3967;48.702;9.326;2023-03-14T14:32:40;10.20;61.80
7844;DHT22;3967;48.702;9.326;2023-03-14T14:35:10;10.20;61.60
7844;DHT22;3967;48.702;9.326;2023-03-14T14:37:44;10.20;62.40
7844;DHT22;3967;48.702;9.326;2023-03-14T14:40:24;10.20;62.20
7844;DHT22;3967;48.702;9.326;2023-03-14T14:42:55;10.30;62.80
7844;DHT22;3967;48.702;9.326;2023-03-14T14:45:28;10.30;62.10
7844;DHT22;3967;48.702;9.326;2023-03-14T14:52:59;10.00;62.20
7844;DHT22;3967;48.702;9.326;2023-03-14T14:55:38;9.90;64.40
7844;DHT22;3967;48.702;9.326;2023-03-14T14:58:29;10.00;64.40
7844;DHT22;3967;48.702;9.326;2023-03-14T15:01:02;9.90;64.20
7844;DHT22;3967;48.702;9.326;2023-03-14T15:03:32;9.90;65.50
7844;DHT22;3967;48.702;9.326;2023-03-14T15:05:59;10.00;65.40
7844;DHT22;3967;48.702;9.326;2023-03-14T15:08:27;10.00;65.00
7844;DHT22;3967;48.702;9.326;2023-03-14T15:10:55;9.90;65.90
7844;DHT22;3967;48.702;9.326;2023-03-14T15:13:22;10.00;65.50
7844;DHT22;3967;48.702;9.326;2023-03-14T15:15:50;10.10;64.40
7844;DHT22;3967;48.702;9.326;2023-03-14T15:18:25;10.10;64.40
7844;DHT22;3967;48.702;9.326;2023-03-14T15:20:55;10.30;65.30
7844;DHT22;3967;48.702;9.326;2023-03-14T15:23:22;10.40;64.20
7844;DHT22;3967;48.702;9.326;2023-03-14T15:25:49;10.50;62.80
7844;DHT22;3967;48.702;9.326;2023-03-14T15:28:27;10.40;62.30
7844;DHT22;3967;48.702;9.326;2023-03-14T15:30:56;10.20;63.00
7844;DHT22;3967;48.702;9.326;2023-03-14T15:33:25;10.30;63.40
7844;DHT22;3967;48.702;9.326;2023-03-14T15:35:55;10.40;63.50
7844;DHT22;3967;48.702;9.326;2023-03-14T15:38:23;10.30;62.60
7844;DHT22;3967;48.702;9.326;2023-03-14T15:40:51;10.40;63.00
7844;DHT22;3967;48.702;9.326;2023-03-14T15:43:18;10.50;63.30
7844;DHT22;3967;48.702;9.326;2023-03-14T15:45:45;10.50;63.10
7844;DHT22;3967;48.702;9.326;2023-03-14T15:48:18;10.50;63.60
7844;DHT22;3967;48.702;9.326;2023-03-14T15:50:46;10.40;63.30
7844;DHT22;3967;48.702;9.326;2023-03-14T15:53:13;10.20;63.10
7844;DHT22;3967;48.702;9.326;2023-03-14T15:55:39;10.10;63.10
7844;DHT22;3967;48.702;9.326;2023-03-14T15:58:11;9.90;64.50
7844;DHT22;3967;48.702;9.326;2023-03-14T16:00:41;9.80;65.40
7844;DHT22;3967;48.702;9.326;2023-03-14T16:03:08;9.90;66.30
7844;DHT22;3967;48.702;9.326;2023-03-14T16:05:35;9.80;65.90
7844;DHT22;3967;48.702;9.326;2023-03-14T16:08:01;9.70;65.80
7844;DHT22;3967;48.702;9.326;2023-03-14T16:10:29;9.70;66.50
7844;DHT22;3967;48.702;9.326;2023-03-14T16:12:56;9.80;66.30
7844;DHT22;3967;48.702;9.326;2023-03-14T16:15:23;9.80;65.80
7844;DHT22;3967;48.702;9.326;2023-03-14T16:17:53;9.90;66.50
7844;DHT22;3967;48.702;9.326;2023-03-14T16:20:21;9.80;66.20
7844;DHT22;3967;48.702;9.326;2023-03-14T16:22:48;9.90;66.70
7844;DHT22;3967;48.702;9.326;2023-03-14T16:25:16;9.90;66.80
7844;DHT22;3967;48.702;9.326;2023-03-14T16:27:44;9.90;67.70
7844;DHT22;3967;48.702;9.326;2023-03-14T16:30:12;10.10;67.10
7844;DHT22;3967;48.702;9.326;2023-03-14T16:32:39;10.20;66.70
7844;DHT22;3967;48.702;9.326;2023-03-14T16:35:07;10.10;66.10
7844;DHT22;3967;48.702;9.326;2023-03-14T16:37:33;10.40;66.00
7844;DHT22;3967;48.702;9.326;2023-03-14T16:40:00;10.40;65.50
7844;DHT22;3967;48.702;9.326;2023-03-14T16:42:41;10.40;66.50
7844;DHT22;3967;48.702;9.326;2023-03-14T16:45:28;10.30;66.10
7844;DHT22;3967;48.702;9.326;2023-03-14T16:47:55;10.10;66.10
7844;DHT22;3967;48.702;9.326;2023-03-14T16:50:21;10.10;66.00
7844;DHT22;3967;48.702;9.326;2023-03-14T16:52:48;10.20;65.50
7844;DHT22;3967;48.702;9.326;2023-03-14T16:55:15;9.90;67.10
7844;DHT22;3967;48.702;9.326;2023-03-14T16:57:42;9.80;67.10
7844;DHT22;3967;48.702;9.326;2023-03-14T17:00:09;9.90;66.60
7844;DHT22;3967;48.702;9.326;2023-03-14T17:02:37;9.90;67.80
7844;DHT22;3967;48.702;9.326;2023-03-14T17:05:04;10.10;67.60
7844;DHT22;3967;48.702;9.326;2023-03-14T17:07:31;10.10;66.50
7844;DHT22;3967;48.702;9.326;2023-03-14T17:09:58;10.10;66.80
7844;DHT22;3967;48.702;9.326;2023-03-14T17:12:27;10.00;66.90
7844;DHT22;3967;48.702;9.326;2023-03-14T17:14:54;10.00;67.10
7844;DHT22;3967;48.702;9.326;2023-03-14T17:17:23;9.90;68.00
7844;DHT22;3967;48.702;9.326;2023-03-14T17:19:50;9.90;68.80
7844;DHT22;3967;48.702;9.326;2023-03-14T17:22:16;10.00;67.60
7844;DHT22;3967;48.702;9.326;2023-03-14T17:24:50;9.90;68.70
7844;DHT22;3967;48.702;9.326;2023-03-14T17:27:17;9.80;69.50
7844;DHT22;3967;48.702;9.326;2023-03-14T17:29:47;9.50;70.50
7844;DHT22;3967;48.702;9.326;2023-03-14T17:32:14;9.10;72.30
7844;DHT22;3967;48.702;9.326;2023-03-14T17:34:42;9.10;74.00